sensor_id;sensor_type;location;lat;lon;timestamp;pressure;altitude;pressure_sealevel;temperature;humidity
28008;BME280;15333;50.010;20.020;2022-11-11T00:01:23;100207.63;;;6.18;100.00
28008;BME280;15333;50.010;20.020;2022-11-11T00:04:42;100215.75;;;6.13;100.00
28008;BME280;15333;50.010;20.020;2022-11-11T00:08:02;100218.66;;;6.06;100.00
28008;BME280;15333;50.010;20.020;2022-11-11T00:11:21;100226.69;;;6.04;100.00
28008;BME280;15333;50.010;20.020;2022-11-11T00:14:41;100224.97;;;6.03;100.00
28008;BME280;15333;50.010;20.020;2022-11-11T00:18:00;100226.41;;;5.85;100.00
28008;BME280;15333;50.010;20.020;2022-11-11T00:21:38;100228.28;;;5.56;100.00
28008;BME280;15333;50.010;20.020;2022-11-11T00:25:20;100235.97;;;5.37;100.00
28008;BME280;15333;50.010;20.020;2022-11-11T00:28:40;100241.50;;;5.29;100.00
28008;BME280;15333;50.010;20.020;2022-11-11T00:32:00;100237.53;;;5.15;100.00
28008;BME280;15333;50.010;20.020;2022-11-11T00:35:38;100237.34;;;5.21;100.00
28008;BME280;15333;50.010;20.020;2022-11-11T00:39:13;100241.00;;;5.18;100.00
28008;BME280;15333;50.010;20.020;2022-11-11T00:42:33;100244.41;;;5.22;100.00
28008;BME280;15333;50.010;20.020;2022-11-11T00:45:53;100244.22;;;5.28;100.00
28008;BME280;15333;50.010;20.020;2022-11-11T00:49:12;100244.59;;;5.71;100.00
28008;BME280;15333;50.010;20.020;2022-11-11T00:52:50;100239.28;;;5.71;100.00
28008;BME280;15333;50.010;20.020;2022-11-11T00:56:10;100235.78;;;5.69;100.00
28008;BME280;15333;50.010;20.020;2022-11-11T00:59:29;100235.97;;;5.65;100.00
28008;BME280;15333;50.010;20.020;2022-11-11T01:02:49;100238.03;;;5.55;100.00
28008;BME280;15333;50.010;20.020;2022-11-11T01:06:10;100233.03;;;5.46;100.00
28008;BME280;15333;50.010;20.020;2022-11-11T01:09:30;100229.34;;;5.50;100.00
28008;BME280;15333;50.010;20.020;2022-11-11T01:12:53;100223.75;;;5.59;100.00
28008;BME280;15333;50.010;20.020;2022-11-11T01:16:30;100222.94;;;5.83;100.00
28008;BME280;15333;50.010;20.020;2022-11-11T01:19:49;100224.63;;;5.87;100.00
28008;BME280;15333;50.010;20.020;2022-11-11T01:23:10;100228.56;;;5.74;100.00
28008;BME280;15333;50.010;20.020;2022-11-11T01:26:29;100220.25;;;5.57;100.00
28008;BME280;15333;50.010;20.020;2022-11-11T01:29:49;100218.94;;;5.44;100.00
28008;BME280;15333;50.010;20.020;2022-11-11T01:33:10;100219.13;;;5.38;100.00
28008;BME280;15333;50.010;20.020;2022-11-11T01:36:29;100219.41;;;5.29;100.00
28008;BME280;15333;50.010;20.020;2022-11-11T01:39:49;100223.22;;;5.48;100.00
28008;BME280;15333;50.010;20.020;2022-11-11T01:46:56;100224.16;;;5.47;100.00
28008;BME280;15333;50.010;20.020;2022-11-11T01:50:14;100225.53;;;5.31;100.00
28008;BME280;15333;50.010;20.020;2022-11-11T01:53:34;100220.28;;;5.29;100.00
28008;BME280;15333;50.010;20.020;2022-11-11T01:57:18;100229.38;;;5.21;100.00
28008;BME280;15333;50.010;20.020;2022-11-11T02:00:41;100224.91;;;5.23;100.00
28008;BME280;15333;50.010;20.020;2022-11-11T02:04:01;100231.31;;;5.16;100.00
28008;BME280;15333;50.010;20.020;2022-11-11T02:07:41;100236.41;;;5.23;100.00
28008;BME280;15333;50.010;20.020;2022-11-11T02:11:12;100232.63;;;5.30;100.00
28008;BME280;15333;50.010;20.020;2022-11-11T02:14:36;100231.59;;;5.62;100.00
28008;BME280;15333;50.010;20.020;2022-11-11T02:18:01;100228.69;;;5.70;100.00
28008;BME280;15333;50.010;20.020;2022-11-11T02:21:36;100237.94;;;5.84;100.00
28008;BME280;15333;50.010;20.020;2022-11-11T02:25:03;100245.16;;;6.09;100.00
28008;BME280;15333;50.010;20.020;2022-11-11T02:28:26;100244.84;;;6.18;100.00
28008;BME280;15333;50.010;20.020;2022-11-11T02:31:46;100244.53;;;6.25;100.00
28008;BME280;15333;50.010;20.020;2022-11-11T02:35:19;100244.28;;;6.33;100.00
28008;BME280;15333;50.010;20.020;2022-11-11T02:38:39;100247.75;;;6.35;100.00
28008;BME280;15333;50.010;20.020;2022-11-11T02:41:58;100244.09;;;6.39;100.00
28008;BME280;15333;50.010;20.020;2022-11-11T02:45:17;100251.25;;;6.37;100.00
28008;BME280;15333;50.010;20.020;2022-11-11T02:48:37;100249.59;;;6.33;100.00
28008;BME280;15333;50.010;20.020;2022-11-11T02:51:57;100258.19;;;6.41;100.00
28008;BME280;15333;50.010;20.020;2022-11-11T02:55:17;100263.94;;;6.54;100.00
28008;BME280;15333;50.010;20.020;2022-11-11T02:58:36;100270.97;;;6.55;100.00
28008;BME280;15333;50.010;20.020;2022-11-11T03:01:55;100268.19;;;6.59;100.00
28008;BME280;15333;50.010;20.020;2022-11-11T03:05:15;100266.53;;;6.55;100.00
28008;BME280;15333;50.010;20.020;2022-11-11T03:08:34;100264.69;;;6.57;100.00
28008;BME280;15333;50.010;20.020;2022-11-11T03:11:54;100274.25;;;6.63;100.00
28008;BME280;15333;50.010;20.020;2022-11-11T03:15:13;100253.88;;;6.62;100.00
28008;BME280;15333;50.010;20.020;2022-11-11T03:18:33;100249.38;;;6.64;100.00
28008;BME280;15333;50.010;20.020;2022-11-11T03:21:52;100255.53;;;6.66;100.00
28008;BME280;15333;50.010;20.020;2022-11-11T03:25:13;100260.56;;;6.74;100.00
28008;BME280;15333;50.010;20.020;2022-11-11T03:28:51;100258.69;;;6.76;100.00
28008;BME280;15333;50.010;20.020;2022-11-11T03:32:11;100255.47;;;6.67;100.00
28008;BME280;15333;50.010;20.020;2022-11-11T03:35:31;100246.28;;;6.76;100.00
28008;BME280;15333;50.010;20.020;2022-11-11T03:38:50;100251.06;;;6.90;100.00
28008;BME280;15333;50.010;20.020;2022-11-11T03:42:10;100266.63;;;7.02;100.00
28008;BME280;15333;50.010;20.020;2022-11-11T03:45:29;100252.03;;;6.89;100.00
28008;BME280;15333;50.010;20.020;2022-11-11T03:48:49;100250.38;;;6.85;100.00
28008;BME280;15333;50.010;20.020;2022-11-11T03:52:08;100247.25;;;6.97;100.00
28008;BME280;15333;50.010;20.020;2022-11-11T03:55:28;100250.41;;;7.08;100.00
28008;BME280;15333;50.010;20.020;2022-11-11T03:58:47;100255.53;;;7.13;100.00
28008;BME280;15333;50.010;20.020;2022-11-11T04:02:11;100262.41;;;7.18;100.00
28008;BME280;15333;50.010;20.020;2022-11-11T04:05:50;100261.78;;;7.12;100.00
28008;BME280;15333;50.010;20.020;2022-11-11T04:09:22;100258.06;;;7.17;100.00
28008;BME280;15333;50.010;20.020;2022-11-11T04:12:59;100251.03;;;7.15;100.00
28008;BME280;15333;50.010;20.020;2022-11-11T04:16:38;100245.66;;;7.16;100.00
28008;BME280;15333;50.010;20.020;2022-11-11T04:19:58;100241.25;;;7.15;100.00
28008;BME280;15333;50.010;20.020;2022-11-11T04:23:36;100236.50;;;7.23;100.00
28008;BME280;15333;50.010;20.020;2022-11-11T04:26:57;100237.53;;;7.19;100.00
28008;BME280;15333;50.010;20.020;2022-11-11T04:30:17;100233.72;;;7.26;100.00
28008;BME280;15333;50.010;20.020;2022-11-11T04:33:37;100235.78;;;7.18;100.00
28008;BME280;15333;50.010;20.020;2022-11-11T04:36:56;100250.13;;;7.16;100.00
28008;BME280;15333;50.010;20.020;2022-11-11T04:40:16;100243.38;;;7.05;100.00
28008;BME280;15333;50.010;20.020;2022-11-11T04:43:54;100237.66;;;6.93;100.00
28008;BME280;15333;50.010;20.020;2022-11-11T04:47:32;100239.56;;;6.89;100.00
28008;BME280;15333;50.010;20.020;2022-11-11T04:50:52;100241.06;;;6.73;100.00
28008;BME280;15333;50.010;20.020;2022-11-11T04:54:11;100250.47;;;6.58;100.00
28008;BME280;15333;50.010;20.020;2022-11-11T04:57:31;100255.66;;;6.61;100.00
28008;BME280;15333;50.010;20.020;2022-11-11T05:00:50;100255.81;;;6.58;100.00
28008;BME280;15333;50.010;20.020;2022-11-11T05:04:10;100267.97;;;6.65;100.00
28008;BME280;15333;50.010;20.020;2022-11-11T05:07:30;100262.97;;;6.56;100.00
28008;BME280;15333;50.010;20.020;2022-11-11T05:11:08;100267.81;;;6.45;100.00
28008;BME280;15333;50.010;20.020;2022-11-11T05:14:28;100278.56;;;6.41;100.00
28008;BME280;15333;50.010;20.020;2022-11-11T05:18:07;100294.09;;;6.28;100.00
28008;BME280;15333;50.010;20.020;2022-11-11T05:21:45;100289.09;;;6.19;100.00
28008;BME280;15333;50.010;20.020;2022-11-11T05:25:06;100292.88;;;6.12;100.00
28008;BME280;15333;50.010;20.020;2022-11-11T05:28:43;100300.13;;;6.07;100.00
28008;BME280;15333;50.010;20.020;2022-11-11T05:32:03;100295.22;;;5.95;100.00
28008;BME280;15333;50.010;20.020;2022-11-11T05:35:25;100293.69;;;5.87;100.00
28008;BME280;15333;50.010;20.020;2022-11-11T05:38:44;100305.94;;;5.92;100.00
28008;BME280;15333;50.010;20.020;2022-11-11T05:42:04;100309.44;;;5.94;100.00
28008;BME280;15333;50.010;20.020;2022-11-11T05:45:23;100293.75;;;5.84;100.00
28008;BME280;15333;50.010;20.020;2022-11-11T05:48:43;100302.63;;;5.83;100.00
28008;BME280;15333;50.010;20.020;2022-11-11T05:52:21;100304.31;;;5.87;100.00
28008;BME280;15333;50.010;20.020;2022-11-11T05:55:40;100312.97;;;5.94;100.00
28008;BME280;15333;50.010;20.020;2022-11-11T05:59:00;100332.91;;;6.07;100.00
28008;BME280;15333;50.010;20.020;2022-11-11T06:02:19;100333.75;;;6.08;100.00
28008;BME280;15333;50.010;20.020;2022-11-11T06:05:39;100333.84;;;6.05;100.00
28008;BME280;15333;50.010;20.020;2022-11-11T06:08:59;100331.28;;;6.03;100.00
28008;BME280;15333;50.010;20.020;2022-11-11T06:12:19;100332.91;;;6.07;100.00
28008;BME280;15333;50.010;20.020;2022-11-11T06:15:39;100338.78;;;6.17;100.00
28008;BME280;15333;50.010;20.020;2022-11-11T06:18:59;100332.09;;;6.32;100.00
28008;BME280;15333;50.010;20.020;2022-11-11T06:22:19;100329.19;;;6.39;100.00
28008;BME280;15333;50.010;20.020;2022-11-11T06:25:59;100328.28;;;6.65;100.00
28008;BME280;15333;50.010;20.020;2022-11-11T06:29:34;100321.03;;;6.68;100.00
28008;BME280;15333;50.010;20.020;2022-11-11T06:32:54;100334.41;;;6.92;100.00
28008;BME280;15333;50.010;20.020;2022-11-11T06:36:16;100332.66;;;6.91;100.00
28008;BME280;15333;50.010;20.020;2022-11-11T06:39:36;100336.59;;;7.04;100.00
28008;BME280;15333;50.010;20.020;2022-11-11T06:42:56;100340.44;;;7.20;100.00
28008;BME280;15333;50.010;20.020;2022-11-11T06:46:20;100331.31;;;7.27;100.00
28008;BME280;15333;50.010;20.020;2022-11-11T06:49:40;100329.34;;;7.32;100.00
28008;BME280;15333;50.010;20.020;2022-11-11T06:53:04;100310.19;;;7.23;100.00
28008;BME280;15333;50.010;20.020;2022-11-11T06:56:23;100321.34;;;7.32;100.00
28008;BME280;15333;50.010;20.020;2022-11-11T06:59:43;100321.94;;;7.40;100.00
28008;BME280;15333;50.010;20.020;2022-11-11T07:03:03;100327.50;;;7.58;100.00
28008;BME280;15333;50.010;20.020;2022-11-11T07:06:23;100327.19;;;7.65;100.00
28008;BME280;15333;50.010;20.020;2022-11-11T07:09:43;100333.00;;;7.75;100.00
28008;BME280;15333;50.010;20.020;2022-11-11T07:13:03;100332.91;;;7.78;100.00
28008;BME280;15333;50.010;20.020;2022-11-11T07:16:23;100329.44;;;7.98;100.00
28008;BME280;15333;50.010;20.020;2022-11-11T07:19:42;100330.56;;;8.36;98.81
28008;BME280;15333;50.010;20.020;2022-11-11T07:23:02;100314.34;;;8.40;98.49
28008;BME280;15333;50.010;20.020;2022-11-11T07:26:22;100310.72;;;8.63;96.99
28008;BME280;15333;50.010;20.020;2022-11-11T07:29:41;100315.06;;;8.66;97.47
28008;BME280;15333;50.010;20.020;2022-11-11T07:33:01;100317.19;;;8.78;96.32
28008;BME280;15333;50.010;20.020;2022-11-11T07:36:20;100315.91;;;8.86;95.46
28008;BME280;15333;50.010;20.020;2022-11-11T07:39:40;100315.97;;;8.85;95.46
28008;BME280;15333;50.010;20.020;2022-11-11T07:42:59;100307.31;;;8.80;96.81
28008;BME280;15333;50.010;20.020;2022-11-11T07:46:19;100310.84;;;8.80;97.50
28008;BME280;15333;50.010;20.020;2022-11-11T07:49:38;100316.03;;;8.83;97.87
28008;BME280;15333;50.010;20.020;2022-11-11T07:52:58;100313.25;;;8.86;95.86
28008;BME280;15333;50.010;20.020;2022-11-11T07:56:17;100315.59;;;8.94;96.04
28008;BME280;15333;50.010;20.020;2022-11-11T07:59:37;100310.63;;;9.05;96.39
28008;BME280;15333;50.010;20.020;2022-11-11T08:02:57;100289.41;;;9.02;95.99
28008;BME280;15333;50.010;20.020;2022-11-11T08:06:20;100282.91;;;9.08;95.02
28008;BME280;15333;50.010;20.020;2022-11-11T08:09:40;100274.47;;;9.17;93.32
28008;BME280;15333;50.010;20.020;2022-11-11T08:13:00;100280.47;;;9.22;90.62
28008;BME280;15333;50.010;20.020;2022-11-11T08:16:38;100272.84;;;9.52;89.06
28008;BME280;15333;50.010;20.020;2022-11-11T08:19:58;100268.84;;;9.60;89.46
28008;BME280;15333;50.010;20.020;2022-11-11T08:23:17;100271.72;;;9.74;86.26
28008;BME280;15333;50.010;20.020;2022-11-11T08:26:43;100280.84;;;9.88;85.21
28008;BME280;15333;50.010;20.020;2022-11-11T08:30:04;100285.16;;;10.09;84.68
28008;BME280;15333;50.010;20.020;2022-11-11T08:33:25;100295.69;;;10.31;83.17
28008;BME280;15333;50.010;20.020;2022-11-11T08:36:44;100304.19;;;10.39;82.52
28008;BME280;15333;50.010;20.020;2022-11-11T08:40:04;100302.69;;;10.68;81.41
28008;BME280;15333;50.010;20.020;2022-11-11T08:43:23;100293.47;;;10.73;81.64
28008;BME280;15333;50.010;20.020;2022-11-11T08:46:44;100300.34;;;10.79;81.37
28008;BME280;15333;50.010;20.020;2022-11-11T08:50:05;100299.38;;;10.97;80.40
28008;BME280;15333;50.010;20.020;2022-11-11T08:53:25;100302.03;;;10.97;80.15
28008;BME280;15333;50.010;20.020;2022-11-11T08:56:45;100309.44;;;11.09;80.44
28008;BME280;15333;50.010;20.020;2022-11-11T09:00:05;100323.06;;;11.22;79.10
28008;BME280;15333;50.010;20.020;2022-11-11T09:03:25;100318.69;;;11.36;78.83
28008;BME280;15333;50.010;20.020;2022-11-11T09:06:45;100319.31;;;11.24;79.05
28008;BME280;15333;50.010;20.020;2022-11-11T09:10:07;100315.81;;;11.39;79.38
28008;BME280;15333;50.010;20.020;2022-11-11T09:13:26;100311.50;;;11.53;78.41
28008;BME280;15333;50.010;20.020;2022-11-11T09:16:46;100299.16;;;11.66;77.23
28008;BME280;15333;50.010;20.020;2022-11-11T09:20:06;100293.91;;;11.80;75.98
28008;BME280;15333;50.010;20.020;2022-11-11T09:23:26;100288.69;;;12.08;75.34
28008;BME280;15333;50.010;20.020;2022-11-11T09:26:47;100280.69;;;12.23;74.22
28008;BME280;15333;50.010;20.020;2022-11-11T09:30:08;100290.00;;;12.01;72.72
28008;BME280;15333;50.010;20.020;2022-11-11T09:33:28;100304.72;;;12.10;72.36
28008;BME280;15333;50.010;20.020;2022-11-11T09:36:47;100308.78;;;12.17;71.78
28008;BME280;15333;50.010;20.020;2022-11-11T09:40:15;100309.19;;;12.25;71.83
28008;BME280;15333;50.010;20.020;2022-11-11T09:44:00;100299.91;;;12.31;71.43
28008;BME280;15333;50.010;20.020;2022-11-11T09:47:40;100296.41;;;12.44;69.87
28008;BME280;15333;50.010;20.020;2022-11-11T09:51:13;100304.78;;;12.08;70.50
28008;BME280;15333;50.010;20.020;2022-11-11T09:54:47;100307.75;;;11.88;71.86
28008;BME280;15333;50.010;20.020;2022-11-11T09:58:16;100300.94;;;11.98;71.52
28008;BME280;15333;50.010;20.020;2022-11-11T10:01:41;100300.56;;;11.57;73.49
28008;BME280;15333;50.010;20.020;2022-11-11T10:05:09;100298.91;;;11.55;73.36
28008;BME280;15333;50.010;20.020;2022-11-11T10:08:43;100302.50;;;11.38;74.32
28008;BME280;15333;50.010;20.020;2022-11-11T10:12:13;100306.97;;;11.37;74.45
28008;BME280;15333;50.010;20.020;2022-11-11T10:15:43;100304.94;;;11.43;73.92
28008;BME280;15333;50.010;20.020;2022-11-11T10:22:41;100295.56;;;11.83;73.35
28008;BME280;15333;50.010;20.020;2022-11-11T10:26:09;100285.75;;;12.13;72.61
28008;BME280;15333;50.010;20.020;2022-11-11T10:29:40;100294.94;;;12.09;71.69
28008;BME280;15333;50.010;20.020;2022-11-11T10:33:12;100298.31;;;11.97;72.17
28008;BME280;15333;50.010;20.020;2022-11-11T10:36:39;100293.91;;;11.80;73.24
28008;BME280;15333;50.010;20.020;2022-11-11T10:43:27;100294.41;;;11.71;72.64
28008;BME280;15333;50.010;20.020;2022-11-11T10:47:11;100299.13;;;11.83;73.41
28008;BME280;15333;50.010;20.020;2022-11-11T10:50:36;100289.25;;;11.99;73.45
28008;BME280;15333;50.010;20.020;2022-11-11T10:54:07;100286.28;;;12.20;72.94
28008;BME280;15333;50.010;20.020;2022-11-11T10:57:35;100285.75;;;12.29;72.37
28008;BME280;15333;50.010;20.020;2022-11-11T11:00:59;100282.44;;;12.24;71.91
28008;BME280;15333;50.010;20.020;2022-11-11T11:04:32;100277.84;;;12.26;72.81
28008;BME280;15333;50.010;20.020;2022-11-11T11:08:04;100263.91;;;12.35;72.98
28008;BME280;15333;50.010;20.020;2022-11-11T11:11:30;100259.69;;;12.45;71.52
28008;BME280;15333;50.010;20.020;2022-11-11T11:14:54;100252.25;;;12.50;71.29
28008;BME280;15333;50.010;20.020;2022-11-11T11:18:17;100246.53;;;12.84;71.26
28008;BME280;15333;50.010;20.020;2022-11-11T11:21:49;100239.84;;;13.06;69.90
28008;BME280;15333;50.010;20.020;2022-11-11T11:25:10;100247.69;;;13.09;70.16
28008;BME280;15333;50.010;20.020;2022-11-11T11:28:31;100250.00;;;13.29;68.82
28008;BME280;15333;50.010;20.020;2022-11-11T11:31:53;100250.19;;;13.12;69.46
28008;BME280;15333;50.010;20.020;2022-11-11T11:35:39;100243.63;;;13.58;68.21
28008;BME280;15333;50.010;20.020;2022-11-11T11:38:58;100237.59;;;13.55;67.95
28008;BME280;15333;50.010;20.020;2022-11-11T11:42:30;100222.16;;;13.30;67.77
28008;BME280;15333;50.010;20.020;2022-11-11T11:45:54;100211.69;;;13.81;67.30
28008;BME280;15333;50.010;20.020;2022-11-11T11:49:39;100221.38;;;13.56;65.67
28008;BME280;15333;50.010;20.020;2022-11-11T11:53:14;100231.94;;;13.45;68.05
28008;BME280;15333;50.010;20.020;2022-11-11T11:56:41;100241.00;;;13.85;67.06
28008;BME280;15333;50.010;20.020;2022-11-11T12:00:05;100227.22;;;13.90;66.93
28008;BME280;15333;50.010;20.020;2022-11-11T12:03:34;100236.94;;;13.51;66.23
28008;BME280;15333;50.010;20.020;2022-11-11T12:07:01;100238.22;;;13.72;69.13
28008;BME280;15333;50.010;20.020;2022-11-11T12:20:54;100246.09;;;13.35;66.41
28008;BME280;15333;50.010;20.020;2022-11-11T12:32:21;100210.31;;;13.61;67.02
28008;BME280;15333;50.010;20.020;2022-11-11T12:43:02;100214.09;;;13.02;67.93
28008;BME280;15333;50.010;20.020;2022-11-11T12:46:29;100226.97;;;13.11;68.73
28008;BME280;15333;50.010;20.020;2022-11-11T12:49:57;100224.75;;;13.03;68.49
28008;BME280;15333;50.010;20.020;2022-11-11T12:56:58;100224.09;;;13.00;68.50
28008;BME280;15333;50.010;20.020;2022-11-11T13:00:23;100212.75;;;13.09;67.70
28008;BME280;15333;50.010;20.020;2022-11-11T13:15:12;100203.25;;;12.75;69.58
28008;BME280;15333;50.010;20.020;2022-11-11T13:19:13;100194.13;;;12.63;70.25
28008;BME280;15333;50.010;20.020;2022-11-11T13:22:27;100197.47;;;12.67;70.37
28008;BME280;15333;50.010;20.020;2022-11-11T13:25:50;100199.31;;;12.66;71.29
28008;BME280;15333;50.010;20.020;2022-11-11T13:29:42;100209.50;;;12.75;70.69
28008;BME280;15333;50.010;20.020;2022-11-11T13:33:11;100210.03;;;12.66;71.29
28008;BME280;15333;50.010;20.020;2022-11-11T13:36:40;100201.91;;;12.68;71.70
28008;BME280;15333;50.010;20.020;2022-11-11T13:40:08;100180.09;;;12.58;71.76
28008;BME280;15333;50.010;20.020;2022-11-11T14:22:37;100213.09;;;11.86;76.42
28008;BME280;15333;50.010;20.020;2022-11-11T14:29:33;100215.94;;;11.67;78.43
28008;BME280;15333;50.010;20.020;2022-11-11T14:33:07;100220.63;;;11.64;78.18
28008;BME280;15333;50.010;20.020;2022-11-11T14:36:52;100219.69;;;11.49;79.78
28008;BME280;15333;50.010;20.020;2022-11-11T14:40:27;100217.59;;;11.38;79.89
28008;BME280;15333;50.010;20.020;2022-11-11T14:43:47;100228.91;;;11.28;80.60
28008;BME280;15333;50.010;20.020;2022-11-11T14:53:46;100223.25;;;11.01;83.40
28008;BME280;15333;50.010;20.020;2022-11-11T14:57:17;100223.75;;;10.92;84.33
28008;BME280;15333;50.010;20.020;2022-11-11T15:00:49;100232.81;;;10.89;84.89
28008;BME280;15333;50.010;20.020;2022-11-11T15:04:10;100236.69;;;10.84;85.50
28008;BME280;15333;50.010;20.020;2022-11-11T15:07:54;100231.75;;;10.76;85.52
28008;BME280;15333;50.010;20.020;2022-11-11T15:14:50;100230.41;;;10.68;86.65
28008;BME280;15333;50.010;20.020;2022-11-11T15:26:05;100239.81;;;10.42;88.86
28008;BME280;15333;50.010;20.020;2022-11-11T15:33:13;100228.72;;;10.32;90.62
28008;BME280;15333;50.010;20.020;2022-11-11T15:36:44;100228.88;;;10.29;91.02
28008;BME280;15333;50.010;20.020;2022-11-11T15:40:18;100231.84;;;10.23;90.49
28008;BME280;15333;50.010;20.020;2022-11-11T15:43:38;100238.59;;;10.13;92.14
28008;BME280;15333;50.010;20.020;2022-11-11T15:46:59;100246.69;;;10.11;92.11
28008;BME280;15333;50.010;20.020;2022-11-11T15:53:44;100246.28;;;10.02;92.34
28008;BME280;15333;50.010;20.020;2022-11-11T15:57:23;100242.97;;;9.97;92.51
28008;BME280;15333;50.010;20.020;2022-11-11T16:00:44;100250.38;;;9.92;93.21
28008;BME280;15333;50.010;20.020;2022-11-11T16:04:07;100252.69;;;9.80;93.17
28008;BME280;15333;50.010;20.020;2022-11-11T16:07:35;100256.59;;;9.73;93.65
28008;BME280;15333;50.010;20.020;2022-11-11T16:10:57;100248.88;;;9.67;94.18
28008;BME280;15333;50.010;20.020;2022-11-11T16:14:27;100259.50;;;9.69;93.20
28008;BME280;15333;50.010;20.020;2022-11-11T16:17:50;100249.69;;;9.69;94.05
28008;BME280;15333;50.010;20.020;2022-11-11T16:21:16;100253.38;;;9.67;93.18
28008;BME280;15333;50.010;20.020;2022-11-11T16:24:38;100241.16;;;9.61;94.21
28008;BME280;15333;50.010;20.020;2022-11-11T16:27:59;100236.00;;;9.58;93.67
28008;BME280;15333;50.010;20.020;2022-11-11T16:34:52;100239.28;;;9.63;92.32
28008;BME280;15333;50.010;20.020;2022-11-11T16:38:28;100239.00;;;9.69;91.97
28008;BME280;15333;50.010;20.020;2022-11-11T16:41:52;100240.00;;;9.67;91.92
28008;BME280;15333;50.010;20.020;2022-11-11T16:45:19;100237.56;;;9.62;92.25
28008;BME280;15333;50.010;20.020;2022-11-11T16:48:43;100240.00;;;9.67;92.29
28008;BME280;15333;50.010;20.020;2022-11-11T16:52:11;100245.06;;;9.54;92.47
28008;BME280;15333;50.010;20.020;2022-11-11T16:55:38;100248.69;;;9.53;92.46
28008;BME280;15333;50.010;20.020;2022-11-11T16:59:12;100245.25;;;9.51;92.82
28008;BME280;15333;50.010;20.020;2022-11-11T17:02:34;100255.44;;;9.43;93.37
28008;BME280;15333;50.010;20.020;2022-11-11T17:06:00;100253.13;;;9.35;94.33
28008;BME280;15333;50.010;20.020;2022-11-11T17:12:46;100248.06;;;9.29;95.48
28008;BME280;15333;50.010;20.020;2022-11-11T17:16:06;100247.25;;;9.27;95.93
28008;BME280;15333;50.010;20.020;2022-11-11T17:19:29;100251.75;;;9.27;95.92
28008;BME280;15333;50.010;20.020;2022-11-11T17:22:54;100241.34;;;9.21;96.06
28008;BME280;15333;50.010;20.020;2022-11-11T17:26:16;100246.81;;;9.18;96.66
28008;BME280;15333;50.010;20.020;2022-11-11T17:29:35;100248.56;;;9.19;96.24
28008;BME280;15333;50.010;20.020;2022-11-11T17:32:55;100252.59;;;9.09;96.77
28008;BME280;15333;50.010;20.020;2022-11-11T17:36:14;100256.97;;;9.10;97.10
28008;BME280;15333;50.010;20.020;2022-11-11T17:39:33;100249.25;;;9.03;97.21
28008;BME280;15333;50.010;20.020;2022-11-11T17:42:53;100250.41;;;8.98;97.74
28008;BME280;15333;50.010;20.020;2022-11-11T17:46:13;100245.13;;;8.96;98.05
28008;BME280;15333;50.010;20.020;2022-11-11T17:49:32;100244.63;;;8.88;98.73
28008;BME280;15333;50.010;20.020;2022-11-11T17:52:54;100244.63;;;8.88;98.70
28008;BME280;15333;50.010;20.020;2022-11-11T17:56:14;100250.91;;;8.87;99.07
28008;BME280;15333;50.010;20.020;2022-11-11T17:59:34;100242.09;;;8.85;99.23
28008;BME280;15333;50.010;20.020;2022-11-11T18:02:55;100239.28;;;8.88;98.77
28008;BME280;15333;50.010;20.020;2022-11-11T18:06:14;100243.03;;;8.84;99.18
28008;BME280;15333;50.010;20.020;2022-11-11T18:09:33;100249.53;;;8.79;98.93
28008;BME280;15333;50.010;20.020;2022-11-11T18:12:52;100244.03;;;8.82;98.68
28008;BME280;15333;50.010;20.020;2022-11-11T18:16:14;100234.50;;;8.76;98.86
28008;BME280;15333;50.010;20.020;2022-11-11T18:19:34;100246.19;;;8.74;98.91
28008;BME280;15333;50.010;20.020;2022-11-11T18:22:56;100243.72;;;8.69;99.64
28008;BME280;15333;50.010;20.020;2022-11-11T18:26:15;100250.41;;;8.59;99.98
28008;BME280;15333;50.010;20.020;2022-11-11T18:29:35;100254.94;;;8.57;100.00
28008;BME280;15333;50.010;20.020;2022-11-11T18:32:55;100264.16;;;8.50;100.00
28008;BME280;15333;50.010;20.020;2022-11-11T18:36:17;100263.41;;;8.46;100.00
28008;BME280;15333;50.010;20.020;2022-11-11T18:39:37;100264.16;;;8.50;100.00
28008;BME280;15333;50.010;20.020;2022-11-11T18:42:57;100266.16;;;8.45;100.00
28008;BME280;15333;50.010;20.020;2022-11-11T18:46:22;100264.53;;;8.41;100.00
28008;BME280;15333;50.010;20.020;2022-11-11T19:01:26;100270.25;;;8.32;100.00
28008;BME280;15333;50.010;20.020;2022-11-11T19:04:47;100268.41;;;8.34;100.00
28008;BME280;15333;50.010;20.020;2022-11-11T19:08:06;100265.88;;;8.51;100.00
28008;BME280;15333;50.010;20.020;2022-11-11T19:11:27;100274.94;;;8.47;100.00
28008;BME280;15333;50.010;20.020;2022-11-11T19:14:46;100292.09;;;8.41;100.00
28008;BME280;15333;50.010;20.020;2022-11-11T19:18:06;100286.69;;;8.43;100.00
28008;BME280;15333;50.010;20.020;2022-11-11T19:21:27;100286.97;;;8.37;100.00
28008;BME280;15333;50.010;20.020;2022-11-11T19:24:47;100290.75;;;8.31;100.00
28008;BME280;15333;50.010;20.020;2022-11-11T19:28:07;100300.91;;;8.21;100.00
28008;BME280;15333;50.010;20.020;2022-11-11T19:31:28;100302.50;;;8.25;100.00
28008;BME280;15333;50.010;20.020;2022-11-11T19:34:48;100293.94;;;8.17;100.00
28008;BME280;15333;50.010;20.020;2022-11-11T19:38:08;100292.16;;;8.18;100.00
28008;BME280;15333;50.010;20.020;2022-11-11T19:41:28;100293.94;;;8.17;100.00
28008;BME280;15333;50.010;20.020;2022-11-11T19:44:48;100306.25;;;8.21;100.00
28008;BME280;15333;50.010;20.020;2022-11-11T19:48:08;100312.50;;;8.20;100.00
28008;BME280;15333;50.010;20.020;2022-11-11T19:51:27;100321.38;;;8.21;100.00
28008;BME280;15333;50.010;20.020;2022-11-11T19:54:48;100309.94;;;8.17;100.00